Hillsboro, Ohio
Current Conditions -  °F | °C
As of 1:54 PM on Friday 31 Oct 2014 (Local Time) from KILN Reporting Station
Moderate Rain Moderate Rain  
Wind Chill: 36°   Ceiling: 1600
Heat Index: 43°   Visibility: 3mi
Dew Point: 38°   Wind: 13mph
Humidity: 82%   Direction: 290°WNW
Pressure: 29.88"   Gusts: NA
Location:  39.2°N, 83.61°W
Report Text: KILN 311754Z AUTO 29011KT 3SM RA BKN016 BKN024 OVC031 06/03 A2988 RMK AO2 SLP135 P0002 60002 T00610033 10083 20044 58018
Loading
Personal Weather Stations






























Interactive Weather Map
Tropical Storm Tracking
New forecast layout! Learn more

10-Day Weather Forecast

Advertisements
Track Severe Weather on mobile